sensor_id;sensor_type;location;lat;lon;timestamp;P1;durP1;ratioP1;P2;durP2;ratioP2
5245;SDS011;54412;51.206;6.888;2023-05-10T00:01:25;10.47;;;9.47;;
5245;SDS011;54412;51.206;6.888;2023-05-10T00:03:50;9.73;;;8.83;;
5245;SDS011;54412;51.206;6.888;2023-05-10T00:06:16;9.47;;;8.60;;
5245;SDS011;54412;51.206;6.888;2023-05-10T00:08:42;11.63;;;10.63;;
5245;SDS011;54412;51.206;6.888;2023-05-10T00:11:08;11.67;;;9.87;;
5245;SDS011;54412;51.206;6.888;2023-05-10T00:13:33;11.00;;;10.00;;
5245;SDS011;54412;51.206;6.888;2023-05-10T00:15:59;18.63;;;9.87;;
5245;SDS011;54412;51.206;6.888;2023-05-10T00:18:25;10.33;;;9.37;;
5245;SDS011;54412;51.206;6.888;2023-05-10T00:20:51;10.63;;;9.53;;
5245;SDS011;54412;51.206;6.888;2023-05-10T00:23:16;11.47;;;9.90;;
5245;SDS011;54412;51.206;6.888;2023-05-10T00:25:42;10.97;;;9.90;;
5245;SDS011;54412;51.206;6.888;2023-05-10T00:28:08;12.50;;;11.30;;
5245;SDS011;54412;51.206;6.888;2023-05-10T00:30:33;11.83;;;10.47;;
5245;SDS011;54412;51.206;6.888;2023-05-10T00:32:59;13.13;;;11.73;;
5245;SDS011;54412;51.206;6.888;2023-05-10T00:35:25;13.03;;;11.20;;
5245;SDS011;54412;51.206;6.888;2023-05-10T00:37:51;13.30;;;11.90;;
5245;SDS011;54412;51.206;6.888;2023-05-10T00:40:16;12.73;;;11.40;;
5245;SDS011;54412;51.206;6.888;2023-05-10T00:42:42;12.20;;;11.00;;
5245;SDS011;54412;51.206;6.888;2023-05-10T00:45:08;12.50;;;11.20;;
5245;SDS011;54412;51.206;6.888;2023-05-10T00:47:34;13.33;;;12.03;;
5245;SDS011;54412;51.206;6.888;2023-05-10T00:50:00;12.70;;;11.30;;
5245;SDS011;54412;51.206;6.888;2023-05-10T00:52:27;16.50;;;13.17;;
5245;SDS011;54412;51.206;6.888;2023-05-10T00:54:54;13.53;;;12.00;;
5245;SDS011;54412;51.206;6.888;2023-05-10T00:57:21;15.23;;;12.40;;
5245;SDS011;54412;51.206;6.888;2023-05-10T00:59:47;13.93;;;12.53;;
5245;SDS011;54412;51.206;6.888;2023-05-10T01:02:13;14.90;;;11.67;;
5245;SDS011;54412;51.206;6.888;2023-05-10T01:04:40;13.07;;;11.77;;
5245;SDS011;54412;51.206;6.888;2023-05-10T01:07:06;11.27;;;10.17;;
5245;SDS011;54412;51.206;6.888;2023-05-10T01:09:31;10.57;;;9.33;;
5245;SDS011;54412;51.206;6.888;2023-05-10T01:11:58;11.50;;;8.70;;
5245;SDS011;54412;51.206;6.888;2023-05-10T01:14:26;9.60;;;8.70;;
5245;SDS011;54412;51.206;6.888;2023-05-10T01:16:53;8.87;;;7.97;;
5245;SDS011;54412;51.206;6.888;2023-05-10T01:19:23;9.67;;;8.63;;
5245;SDS011;54412;51.206;6.888;2023-05-10T01:22:02;9.10;;;8.27;;
5245;SDS011;54412;51.206;6.888;2023-05-10T01:33:30;8.23;;;7.40;;
5245;SDS011;54412;51.206;6.888;2023-05-10T01:36:13;8.80;;;7.73;;
5245;SDS011;54412;51.206;6.888;2023-05-10T01:44:31;13.00;;;8.63;;
5245;SDS011;54412;51.206;6.888;2023-05-10T01:49:57;10.50;;;7.43;;
5245;SDS011;54412;51.206;6.888;2023-05-10T01:52:30;9.53;;;6.90;;
5245;SDS011;54412;51.206;6.888;2023-05-10T01:55:02;13.70;;;8.40;;
5245;SDS011;54412;51.206;6.888;2023-05-10T01:57:33;8.93;;;6.63;;
5245;SDS011;54412;51.206;6.888;2023-05-10T02:00:02;8.00;;;7.20;;
5245;SDS011;54412;51.206;6.888;2023-05-10T02:02:29;7.97;;;7.27;;
5245;SDS011;54412;51.206;6.888;2023-05-10T02:05:03;10.30;;;7.80;;
5245;SDS011;54412;51.206;6.888;2023-05-10T02:07:31;8.17;;;7.40;;
5245;SDS011;54412;51.206;6.888;2023-05-10T02:10:02;8.47;;;7.30;;
5245;SDS011;54412;51.206;6.888;2023-05-10T02:12:31;10.47;;;7.97;;
5245;SDS011;54412;51.206;6.888;2023-05-10T02:15:02;8.70;;;7.50;;
5245;SDS011;54412;51.206;6.888;2023-05-10T02:17:32;8.57;;;7.17;;
5245;SDS011;54412;51.206;6.888;2023-05-10T02:20:00;7.03;;;6.43;;
5245;SDS011;54412;51.206;6.888;2023-05-10T02:22:28;11.93;;;7.63;;
5245;SDS011;54412;51.206;6.888;2023-05-10T02:24:55;8.10;;;7.33;;
5245;SDS011;54412;51.206;6.888;2023-05-10T02:27:25;7.40;;;6.70;;
5245;SDS011;54412;51.206;6.888;2023-05-10T02:29:54;8.07;;;7.47;;
5245;SDS011;54412;51.206;6.888;2023-05-10T02:32:21;10.93;;;7.47;;
5245;SDS011;54412;51.206;6.888;2023-05-10T02:34:51;8.70;;;7.80;;
5245;SDS011;54412;51.206;6.888;2023-05-10T02:37:20;8.80;;;7.77;;
5245;SDS011;54412;51.206;6.888;2023-05-10T02:39:47;11.63;;;8.17;;
5245;SDS011;54412;51.206;6.888;2023-05-10T02:42:17;9.80;;;8.77;;
5245;SDS011;54412;51.206;6.888;2023-05-10T02:44:47;7.50;;;6.80;;
5245;SDS011;54412;51.206;6.888;2023-05-10T02:47:18;8.90;;;8.00;;
5245;SDS011;54412;51.206;6.888;2023-05-10T02:49:44;9.97;;;7.87;;
5245;SDS011;54412;51.206;6.888;2023-05-10T02:52:11;9.37;;;8.17;;
5245;SDS011;54412;51.206;6.888;2023-05-10T02:54:47;9.70;;;7.70;;
5245;SDS011;54412;51.206;6.888;2023-05-10T02:57:17;11.37;;;8.80;;
5245;SDS011;54412;51.206;6.888;2023-05-10T02:59:52;11.53;;;8.77;;
5245;SDS011;54412;51.206;6.888;2023-05-10T03:02:18;9.10;;;8.20;;
5245;SDS011;54412;51.206;6.888;2023-05-10T03:04:45;11.87;;;9.40;;
5245;SDS011;54412;51.206;6.888;2023-05-10T03:07:10;10.60;;;7.83;;
5245;SDS011;54412;51.206;6.888;2023-05-10T03:09:36;9.33;;;8.43;;
5245;SDS011;54412;51.206;6.888;2023-05-10T03:12:14;9.90;;;8.90;;
5245;SDS011;54412;51.206;6.888;2023-05-10T03:14:57;9.47;;;7.37;;
5245;SDS011;54412;51.206;6.888;2023-05-10T03:18:01;11.00;;;8.13;;
5245;SDS011;54412;51.206;6.888;2023-05-10T03:20:38;12.67;;;8.80;;
5245;SDS011;54412;51.206;6.888;2023-05-10T03:23:30;8.80;;;8.00;;
5245;SDS011;54412;51.206;6.888;2023-05-10T03:26:05;10.50;;;8.97;;
5245;SDS011;54412;51.206;6.888;2023-05-10T03:28:33;10.30;;;9.23;;
5245;SDS011;54412;51.206;6.888;2023-05-10T03:31:01;10.23;;;9.23;;
5245;SDS011;54412;51.206;6.888;2023-05-10T03:33:30;10.63;;;9.50;;
5245;SDS011;54412;51.206;6.888;2023-05-10T03:35:56;12.80;;;9.93;;
5245;SDS011;54412;51.206;6.888;2023-05-10T03:38:22;10.30;;;9.10;;
5245;SDS011;54412;51.206;6.888;2023-05-10T03:40:48;13.53;;;9.93;;
5245;SDS011;54412;51.206;6.888;2023-05-10T03:43:13;12.30;;;10.07;;
5245;SDS011;54412;51.206;6.888;2023-05-10T03:45:39;11.10;;;9.90;;
5245;SDS011;54412;51.206;6.888;2023-05-10T03:48:05;9.60;;;8.60;;
5245;SDS011;54412;51.206;6.888;2023-05-10T03:50:30;12.30;;;10.17;;
5245;SDS011;54412;51.206;6.888;2023-05-10T03:52:56;11.17;;;9.97;;
5245;SDS011;54412;51.206;6.888;2023-05-10T03:55:22;12.20;;;10.40;;
5245;SDS011;54412;51.206;6.888;2023-05-10T03:57:48;12.37;;;10.10;;
5245;SDS011;54412;51.206;6.888;2023-05-10T04:00:18;13.83;;;9.83;;
5245;SDS011;54412;51.206;6.888;2023-05-10T04:02:44;11.90;;;10.00;;
5245;SDS011;54412;51.206;6.888;2023-05-10T04:05:10;10.17;;;9.10;;
5245;SDS011;54412;51.206;6.888;2023-05-10T04:07:36;9.37;;;7.80;;
5245;SDS011;54412;51.206;6.888;2023-05-10T04:10:02;11.67;;;9.67;;
5245;SDS011;54412;51.206;6.888;2023-05-10T04:12:27;11.13;;;9.80;;
5245;SDS011;54412;51.206;6.888;2023-05-10T04:14:53;9.50;;;8.57;;
5245;SDS011;54412;51.206;6.888;2023-05-10T04:17:19;19.67;;;10.90;;
5245;SDS011;54412;51.206;6.888;2023-05-10T04:19:44;13.10;;;10.50;;
5245;SDS011;54412;51.206;6.888;2023-05-10T04:22:10;12.63;;;9.93;;
5245;SDS011;54412;51.206;6.888;2023-05-10T04:24:36;16.60;;;10.70;;
5245;SDS011;54412;51.206;6.888;2023-05-10T04:27:01;15.33;;;10.77;;
5245;SDS011;54412;51.206;6.888;2023-05-10T04:29:27;10.80;;;9.47;;
5245;SDS011;54412;51.206;6.888;2023-05-10T04:31:52;11.93;;;10.17;;
5245;SDS011;54412;51.206;6.888;2023-05-10T04:34:20;12.60;;;10.50;;
5245;SDS011;54412;51.206;6.888;2023-05-10T04:36:46;15.20;;;11.40;;
5245;SDS011;54412;51.206;6.888;2023-05-10T04:39:11;14.40;;;11.23;;
5245;SDS011;54412;51.206;6.888;2023-05-10T04:41:38;16.60;;;12.57;;
5245;SDS011;54412;51.206;6.888;2023-05-10T04:44:04;14.30;;;11.67;;
5245;SDS011;54412;51.206;6.888;2023-05-10T04:46:29;19.87;;;14.17;;
5245;SDS011;54412;51.206;6.888;2023-05-10T04:48:55;18.20;;;13.27;;
5245;SDS011;54412;51.206;6.888;2023-05-10T04:51:21;19.70;;;14.27;;
5245;SDS011;54412;51.206;6.888;2023-05-10T04:53:46;20.20;;;14.40;;
5245;SDS011;54412;51.206;6.888;2023-05-10T04:56:12;22.20;;;15.50;;
5245;SDS011;54412;51.206;6.888;2023-05-10T04:58:38;23.93;;;16.90;;
5245;SDS011;54412;51.206;6.888;2023-05-10T05:01:07;23.83;;;15.53;;
5245;SDS011;54412;51.206;6.888;2023-05-10T05:03:34;23.33;;;15.40;;
5245;SDS011;54412;51.206;6.888;2023-05-10T05:05:59;21.70;;;15.17;;
5245;SDS011;54412;51.206;6.888;2023-05-10T05:08:25;27.10;;;16.80;;
5245;SDS011;54412;51.206;6.888;2023-05-10T05:10:51;24.30;;;18.20;;
5245;SDS011;54412;51.206;6.888;2023-05-10T05:13:17;22.53;;;16.07;;
5245;SDS011;54412;51.206;6.888;2023-05-10T05:15:42;22.87;;;16.33;;
5245;SDS011;54412;51.206;6.888;2023-05-10T05:18:08;24.60;;;16.50;;
5245;SDS011;54412;51.206;6.888;2023-05-10T05:20:33;26.80;;;17.40;;
5245;SDS011;54412;51.206;6.888;2023-05-10T05:22:59;40.33;;;19.83;;
5245;SDS011;54412;51.206;6.888;2023-05-10T05:25:25;29.33;;;17.73;;
5245;SDS011;54412;51.206;6.888;2023-05-10T05:27:51;25.17;;;17.33;;
5245;SDS011;54412;51.206;6.888;2023-05-10T05:30:17;27.40;;;18.23;;
5245;SDS011;54412;51.206;6.888;2023-05-10T05:32:43;28.33;;;17.50;;
5245;SDS011;54412;51.206;6.888;2023-05-10T05:35:08;23.37;;;17.10;;
5245;SDS011;54412;51.206;6.888;2023-05-10T05:37:34;28.57;;;19.47;;
5245;SDS011;54412;51.206;6.888;2023-05-10T05:40:00;26.57;;;17.80;;
5245;SDS011;54412;51.206;6.888;2023-05-10T05:42:26;28.07;;;19.10;;
5245;SDS011;54412;51.206;6.888;2023-05-10T05:44:52;27.20;;;18.27;;
5245;SDS011;54412;51.206;6.888;2023-05-10T05:47:18;25.00;;;17.43;;
5245;SDS011;54412;51.206;6.888;2023-05-10T05:49:43;21.30;;;16.77;;
5245;SDS011;54412;51.206;6.888;2023-05-10T05:52:12;25.87;;;17.40;;
5245;SDS011;54412;51.206;6.888;2023-05-10T05:54:38;24.17;;;15.73;;
5245;SDS011;54412;51.206;6.888;2023-05-10T05:57:04;22.70;;;16.57;;
5245;SDS011;54412;51.206;6.888;2023-05-10T05:59:30;22.80;;;15.43;;
5245;SDS011;54412;51.206;6.888;2023-05-10T06:01:56;19.53;;;14.40;;
5245;SDS011;54412;51.206;6.888;2023-05-10T06:04:21;22.03;;;13.90;;
5245;SDS011;54412;51.206;6.888;2023-05-10T06:06:47;28.67;;;16.07;;
5245;SDS011;54412;51.206;6.888;2023-05-10T06:09:13;23.10;;;15.13;;
5245;SDS011;54412;51.206;6.888;2023-05-10T06:11:38;16.80;;;13.70;;
5245;SDS011;54412;51.206;6.888;2023-05-10T06:14:04;26.63;;;15.23;;
5245;SDS011;54412;51.206;6.888;2023-05-10T06:16:32;23.13;;;13.63;;
5245;SDS011;54412;51.206;6.888;2023-05-10T06:18:58;19.50;;;15.00;;
5245;SDS011;54412;51.206;6.888;2023-05-10T06:21:24;23.13;;;13.60;;
5245;SDS011;54412;51.206;6.888;2023-05-10T06:23:50;37.33;;;14.50;;
5245;SDS011;54412;51.206;6.888;2023-05-10T06:26:16;27.10;;;14.23;;
5245;SDS011;54412;51.206;6.888;2023-05-10T06:28:41;22.00;;;14.10;;
5245;SDS011;54412;51.206;6.888;2023-05-10T06:31:07;22.87;;;14.37;;
5245;SDS011;54412;51.206;6.888;2023-05-10T06:33:33;17.20;;;12.97;;
5245;SDS011;54412;51.206;6.888;2023-05-10T06:35:59;29.60;;;13.93;;
5245;SDS011;54412;51.206;6.888;2023-05-10T06:38:25;25.50;;;15.40;;
5245;SDS011;54412;51.206;6.888;2023-05-10T06:40:50;26.73;;;14.17;;
5245;SDS011;54412;51.206;6.888;2023-05-10T06:43:16;25.73;;;13.70;;
5245;SDS011;54412;51.206;6.888;2023-05-10T06:45:42;16.80;;;13.80;;
5245;SDS011;54412;51.206;6.888;2023-05-10T06:48:08;20.93;;;13.43;;
5245;SDS011;54412;51.206;6.888;2023-05-10T06:50:33;20.23;;;13.67;;
5245;SDS011;54412;51.206;6.888;2023-05-10T06:53:00;25.20;;;15.60;;
5245;SDS011;54412;51.206;6.888;2023-05-10T06:55:26;23.40;;;14.40;;
5245;SDS011;54412;51.206;6.888;2023-05-10T06:57:53;16.43;;;12.53;;
5245;SDS011;54412;51.206;6.888;2023-05-10T07:00:19;21.43;;;13.80;;
5245;SDS011;54412;51.206;6.888;2023-05-10T07:02:45;24.70;;;13.60;;
5245;SDS011;54412;51.206;6.888;2023-05-10T07:05:12;22.23;;;13.40;;
5245;SDS011;54412;51.206;6.888;2023-05-10T07:07:38;22.47;;;14.43;;
5245;SDS011;54412;51.206;6.888;2023-05-10T07:10:04;23.13;;;13.80;;
5245;SDS011;54412;51.206;6.888;2023-05-10T07:12:30;25.83;;;15.60;;
5245;SDS011;54412;51.206;6.888;2023-05-10T07:14:55;23.10;;;14.13;;
5245;SDS011;54412;51.206;6.888;2023-05-10T07:17:21;30.27;;;18.47;;
5245;SDS011;54412;51.206;6.888;2023-05-10T07:19:47;37.33;;;17.77;;
5245;SDS011;54412;51.206;6.888;2023-05-10T07:22:13;32.87;;;17.63;;
5245;SDS011;54412;51.206;6.888;2023-05-10T07:24:40;26.63;;;16.47;;
5245;SDS011;54412;51.206;6.888;2023-05-10T07:27:05;35.37;;;17.83;;
5245;SDS011;54412;51.206;6.888;2023-05-10T07:29:31;30.90;;;16.80;;
5245;SDS011;54412;51.206;6.888;2023-05-10T07:31:58;25.87;;;16.00;;
5245;SDS011;54412;51.206;6.888;2023-05-10T07:34:23;26.77;;;15.23;;
5245;SDS011;54412;51.206;6.888;2023-05-10T07:36:50;27.67;;;16.70;;
5245;SDS011;54412;51.206;6.888;2023-05-10T07:39:17;27.70;;;17.20;;
5245;SDS011;54412;51.206;6.888;2023-05-10T07:41:42;29.13;;;16.57;;
5245;SDS011;54412;51.206;6.888;2023-05-10T07:44:08;24.13;;;15.50;;
5245;SDS011;54412;51.206;6.888;2023-05-10T07:46:34;27.40;;;17.20;;
5245;SDS011;54412;51.206;6.888;2023-05-10T07:49:00;25.30;;;16.50;;
5245;SDS011;54412;51.206;6.888;2023-05-10T07:51:26;27.83;;;15.53;;
5245;SDS011;54412;51.206;6.888;2023-05-10T07:53:52;24.63;;;15.03;;
5245;SDS011;54412;51.206;6.888;2023-05-10T07:56:25;26.57;;;15.60;;
5245;SDS011;54412;51.206;6.888;2023-05-10T07:58:55;23.50;;;13.77;;
5245;SDS011;54412;51.206;6.888;2023-05-10T08:01:21;23.30;;;12.70;;
5245;SDS011;54412;51.206;6.888;2023-05-10T08:03:47;22.47;;;13.43;;
5245;SDS011;54412;51.206;6.888;2023-05-10T08:06:16;16.23;;;11.90;;
5245;SDS011;54412;51.206;6.888;2023-05-10T08:08:43;18.73;;;13.10;;
5245;SDS011;54412;51.206;6.888;2023-05-10T08:11:14;18.87;;;12.37;;
5245;SDS011;54412;51.206;6.888;2023-05-10T08:13:43;24.83;;;14.50;;
5245;SDS011;54412;51.206;6.888;2023-05-10T08:16:10;26.30;;;15.40;;
5245;SDS011;54412;51.206;6.888;2023-05-10T08:18:36;28.97;;;17.70;;
5245;SDS011;54412;51.206;6.888;2023-05-10T08:21:03;29.10;;;16.47;;
5245;SDS011;54412;51.206;6.888;2023-05-10T08:23:29;31.77;;;19.73;;
5245;SDS011;54412;51.206;6.888;2023-05-10T08:25:55;39.50;;;21.83;;
5245;SDS011;54412;51.206;6.888;2023-05-10T08:28:20;35.50;;;21.30;;
5245;SDS011;54412;51.206;6.888;2023-05-10T08:30:46;35.40;;;20.17;;
5245;SDS011;54412;51.206;6.888;2023-05-10T08:33:12;36.80;;;22.20;;
5245;SDS011;54412;51.206;6.888;2023-05-10T08:35:37;43.60;;;24.53;;
5245;SDS011;54412;51.206;6.888;2023-05-10T08:38:03;39.57;;;22.97;;
5245;SDS011;54412;51.206;6.888;2023-05-10T08:40:29;48.13;;;25.20;;
5245;SDS011;54412;51.206;6.888;2023-05-10T08:42:58;43.90;;;24.87;;
5245;SDS011;54412;51.206;6.888;2023-05-10T08:45:32;43.57;;;24.40;;
5245;SDS011;54412;51.206;6.888;2023-05-10T08:48:03;42.57;;;26.63;;
5245;SDS011;54412;51.206;6.888;2023-05-10T08:50:32;46.10;;;25.33;;
5245;SDS011;54412;51.206;6.888;2023-05-10T08:53:03;49.27;;;26.17;;
5245;SDS011;54412;51.206;6.888;2023-05-10T08:55:38;46.60;;;27.07;;
5245;SDS011;54412;51.206;6.888;2023-05-10T08:58:07;46.00;;;24.77;;
5245;SDS011;54412;51.206;6.888;2023-05-10T09:00:34;46.50;;;26.83;;
5245;SDS011;54412;51.206;6.888;2023-05-10T09:03:02;43.63;;;25.57;;
5245;SDS011;54412;51.206;6.888;2023-05-10T09:05:30;40.43;;;23.63;;
5245;SDS011;54412;51.206;6.888;2023-05-10T09:07:56;41.47;;;24.50;;
5245;SDS011;54412;51.206;6.888;2023-05-10T09:10:21;42.40;;;26.13;;
5245;SDS011;54412;51.206;6.888;2023-05-10T09:12:51;42.23;;;25.80;;
5245;SDS011;54412;51.206;6.888;2023-05-10T09:15:18;42.70;;;25.00;;
5245;SDS011;54412;51.206;6.888;2023-05-10T09:17:45;39.70;;;24.67;;
5245;SDS011;54412;51.206;6.888;2023-05-10T09:20:12;42.83;;;24.23;;
5245;SDS011;54412;51.206;6.888;2023-05-10T09:22:38;41.17;;;23.60;;
5245;SDS011;54412;51.206;6.888;2023-05-10T09:25:08;45.47;;;25.10;;
5245;SDS011;54412;51.206;6.888;2023-05-10T09:27:38;34.30;;;22.30;;
5245;SDS011;54412;51.206;6.888;2023-05-10T09:30:07;37.63;;;22.03;;
5245;SDS011;54412;51.206;6.888;2023-05-10T09:37:41;32.60;;;19.03;;
5245;SDS011;54412;51.206;6.888;2023-05-10T09:40:16;27.73;;;18.87;;
5245;SDS011;54412;51.206;6.888;2023-05-10T09:43:06;24.37;;;17.90;;
5245;SDS011;54412;51.206;6.888;2023-05-10T09:45:33;26.57;;;18.30;;
5245;SDS011;54412;51.206;6.888;2023-05-10T09:48:00;29.13;;;18.97;;
5245;SDS011;54412;51.206;6.888;2023-05-10T09:50:28;32.93;;;19.07;;
5245;SDS011;54412;51.206;6.888;2023-05-10T09:53:01;29.97;;;18.50;;
5245;SDS011;54412;51.206;6.888;2023-05-10T09:55:41;23.93;;;17.57;;
5245;SDS011;54412;51.206;6.888;2023-05-10T09:58:11;25.43;;;17.27;;
5245;SDS011;54412;51.206;6.888;2023-05-10T10:00:41;25.70;;;15.87;;
5245;SDS011;54412;51.206;6.888;2023-05-10T10:03:12;24.00;;;17.40;;
5245;SDS011;54412;51.206;6.888;2023-05-10T10:05:40;28.87;;;16.47;;
5245;SDS011;54412;51.206;6.888;2023-05-10T10:08:08;24.70;;;16.50;;
5245;SDS011;54412;51.206;6.888;2023-05-10T10:10:34;22.27;;;14.20;;
5245;SDS011;54412;51.206;6.888;2023-05-10T10:13:00;27.00;;;16.50;;
5245;SDS011;54412;51.206;6.888;2023-05-10T10:15:27;22.53;;;15.90;;
5245;SDS011;54412;51.206;6.888;2023-05-10T10:17:53;21.43;;;14.97;;
5245;SDS011;54412;51.206;6.888;2023-05-10T10:20:19;20.80;;;13.50;;
5245;SDS011;54412;51.206;6.888;2023-05-10T10:22:48;25.33;;;13.70;;
5245;SDS011;54412;51.206;6.888;2023-05-10T10:25:17;16.30;;;12.23;;
5245;SDS011;54412;51.206;6.888;2023-05-10T10:30:38;23.17;;;14.57;;
5245;SDS011;54412;51.206;6.888;2023-05-10T10:36:12;19.67;;;13.27;;
5245;SDS011;54412;51.206;6.888;2023-05-10T10:41:26;22.57;;;14.23;;
5245;SDS011;54412;51.206;6.888;2023-05-10T10:47:05;22.60;;;14.27;;
5245;SDS011;54412;51.206;6.888;2023-05-10T10:54:51;16.50;;;11.27;;
5245;SDS011;54412;51.206;6.888;2023-05-10T10:57:18;16.43;;;11.90;;
5245;SDS011;54412;51.206;6.888;2023-05-10T10:59:46;18.03;;;12.33;;
5245;SDS011;54412;51.206;6.888;2023-05-10T11:05:25;16.13;;;11.10;;
5245;SDS011;54412;51.206;6.888;2023-05-10T11:07:59;17.90;;;11.93;;
5245;SDS011;54412;51.206;6.888;2023-05-10T11:10:31;16.00;;;12.17;;
5245;SDS011;54412;51.206;6.888;2023-05-10T11:15:34;15.93;;;10.80;;
5245;SDS011;54412;51.206;6.888;2023-05-10T11:20:57;19.30;;;11.57;;
5245;SDS011;54412;51.206;6.888;2023-05-10T11:23:31;14.13;;;11.40;;
5245;SDS011;54412;51.206;6.888;2023-05-10T11:26:06;16.17;;;12.13;;
5245;SDS011;54412;51.206;6.888;2023-05-10T11:28:45;23.10;;;15.20;;
5245;SDS011;54412;51.206;6.888;2023-05-10T11:31:14;21.00;;;15.50;;
5245;SDS011;54412;51.206;6.888;2023-05-10T11:33:48;18.00;;;12.70;;
5245;SDS011;54412;51.206;6.888;2023-05-10T11:36:19;21.77;;;15.37;;
5245;SDS011;54412;51.206;6.888;2023-05-10T11:38:50;24.83;;;14.50;;
5245;SDS011;54412;51.206;6.888;2023-05-10T11:41:18;20.27;;;13.83;;
5245;SDS011;54412;51.206;6.888;2023-05-10T11:43:52;19.40;;;14.47;;
5245;SDS011;54412;51.206;6.888;2023-05-10T11:46:20;26.50;;;16.03;;
5245;SDS011;54412;51.206;6.888;2023-05-10T11:48:49;22.57;;;15.20;;
5245;SDS011;54412;51.206;6.888;2023-05-10T11:51:23;28.53;;;16.50;;
5245;SDS011;54412;51.206;6.888;2023-05-10T11:53:53;19.60;;;13.90;;
5245;SDS011;54412;51.206;6.888;2023-05-10T11:56:21;19.10;;;14.60;;
5245;SDS011;54412;51.206;6.888;2023-05-10T11:58:54;23.10;;;14.70;;
5245;SDS011;54412;51.206;6.888;2023-05-10T12:01:23;30.63;;;16.77;;
5245;SDS011;54412;51.206;6.888;2023-05-10T12:03:54;25.33;;;16.90;;
5245;SDS011;54412;51.206;6.888;2023-05-10T12:06:25;21.50;;;14.80;;
5245;SDS011;54412;51.206;6.888;2023-05-10T12:08:54;28.40;;;15.97;;
5245;SDS011;54412;51.206;6.888;2023-05-10T12:11:20;24.73;;;15.70;;
5245;SDS011;54412;51.206;6.888;2023-05-10T12:13:50;23.40;;;14.23;;
5245;SDS011;54412;51.206;6.888;2023-05-10T12:16:17;19.07;;;13.47;;
5245;SDS011;54412;51.206;6.888;2023-05-10T12:18:55;21.00;;;13.00;;
5245;SDS011;54412;51.206;6.888;2023-05-10T12:21:24;19.33;;;13.93;;
5245;SDS011;54412;51.206;6.888;2023-05-10T12:23:54;16.10;;;12.80;;
5245;SDS011;54412;51.206;6.888;2023-05-10T12:26:25;21.47;;;13.40;;
5245;SDS011;54412;51.206;6.888;2023-05-10T12:28:53;22.73;;;13.80;;
5245;SDS011;54412;51.206;6.888;2023-05-10T12:31:20;19.73;;;15.40;;
5245;SDS011;54412;51.206;6.888;2023-05-10T12:33:46;24.83;;;16.20;;
5245;SDS011;54412;51.206;6.888;2023-05-10T12:36:15;17.23;;;13.77;;
5245;SDS011;54412;51.206;6.888;2023-05-10T12:38:43;18.37;;;13.83;;
5245;SDS011;54412;51.206;6.888;2023-05-10T12:41:14;21.70;;;15.10;;
5245;SDS011;54412;51.206;6.888;2023-05-10T12:43:43;16.67;;;13.33;;
5245;SDS011;54412;51.206;6.888;2023-05-10T12:46:13;23.80;;;14.60;;
5245;SDS011;54412;51.206;6.888;2023-05-10T12:48:42;16.93;;;12.90;;
5245;SDS011;54412;51.206;6.888;2023-05-10T12:51:10;19.47;;;15.00;;
5245;SDS011;54412;51.206;6.888;2023-05-10T12:53:41;20.07;;;13.77;;
5245;SDS011;54412;51.206;6.888;2023-05-10T12:56:08;21.00;;;15.33;;
5245;SDS011;54412;51.206;6.888;2023-05-10T12:58:34;22.33;;;16.33;;
5245;SDS011;54412;51.206;6.888;2023-05-10T13:01:00;22.47;;;17.27;;
5245;SDS011;54412;51.206;6.888;2023-05-10T13:03:26;24.90;;;19.40;;
5245;SDS011;54412;51.206;6.888;2023-05-10T13:05:51;30.63;;;21.33;;
5245;SDS011;54412;51.206;6.888;2023-05-10T13:08:17;25.10;;;18.43;;
5245;SDS011;54412;51.206;6.888;2023-05-10T13:10:43;28.17;;;21.90;;
5245;SDS011;54412;51.206;6.888;2023-05-10T13:13:09;28.13;;;21.13;;
5245;SDS011;54412;51.206;6.888;2023-05-10T13:15:35;26.60;;;19.80;;
5245;SDS011;54412;51.206;6.888;2023-05-10T13:18:00;31.97;;;22.47;;
5245;SDS011;54412;51.206;6.888;2023-05-10T13:20:26;30.13;;;22.10;;
5245;SDS011;54412;51.206;6.888;2023-05-10T13:22:52;31.73;;;21.70;;
5245;SDS011;54412;51.206;6.888;2023-05-10T13:25:18;24.97;;;19.23;;
5245;SDS011;54412;51.206;6.888;2023-05-10T13:27:44;24.60;;;19.57;;
5245;SDS011;54412;51.206;6.888;2023-05-10T13:30:10;27.60;;;20.67;;
5245;SDS011;54412;51.206;6.888;2023-05-10T13:32:36;24.87;;;19.40;;
5245;SDS011;54412;51.206;6.888;2023-05-10T13:35:03;27.20;;;20.27;;
5245;SDS011;54412;51.206;6.888;2023-05-10T13:37:30;29.90;;;20.53;;
5245;SDS011;54412;51.206;6.888;2023-05-10T13:39:57;33.40;;;22.13;;
5245;SDS011;54412;51.206;6.888;2023-05-10T13:42:22;27.70;;;22.07;;
5245;SDS011;54412;51.206;6.888;2023-05-10T13:44:49;26.33;;;19.87;;
5245;SDS011;54412;51.206;6.888;2023-05-10T13:47:15;32.13;;;20.03;;
5245;SDS011;54412;51.206;6.888;2023-05-10T13:49:41;27.73;;;20.90;;
5245;SDS011;54412;51.206;6.888;2023-05-10T13:52:07;31.60;;;22.43;;
5245;SDS011;54412;51.206;6.888;2023-05-10T13:54:33;28.97;;;21.80;;
5245;SDS011;54412;51.206;6.888;2023-05-10T13:56:59;29.87;;;22.00;;
5245;SDS011;54412;51.206;6.888;2023-05-10T13:59:25;30.37;;;21.77;;
5245;SDS011;54412;51.206;6.888;2023-05-10T14:01:51;30.63;;;21.80;;
5245;SDS011;54412;51.206;6.888;2023-05-10T14:04:17;28.97;;;20.33;;
5245;SDS011;54412;51.206;6.888;2023-05-10T14:06:42;26.70;;;19.57;;
5245;SDS011;54412;51.206;6.888;2023-05-10T14:09:08;27.30;;;21.67;;
5245;SDS011;54412;51.206;6.888;2023-05-10T14:11:34;30.43;;;22.57;;
5245;SDS011;54412;51.206;6.888;2023-05-10T14:14:00;29.60;;;21.17;;
5245;SDS011;54412;51.206;6.888;2023-05-10T14:16:25;24.77;;;19.90;;
5245;SDS011;54412;51.206;6.888;2023-05-10T14:18:52;29.30;;;21.43;;
5245;SDS011;54412;51.206;6.888;2023-05-10T14:21:18;28.80;;;19.80;;
5245;SDS011;54412;51.206;6.888;2023-05-10T14:23:43;21.20;;;15.63;;
5245;SDS011;54412;51.206;6.888;2023-05-10T14:26:09;19.83;;;14.63;;
5245;SDS011;54412;51.206;6.888;2023-05-10T14:28:35;15.87;;;12.67;;
5245;SDS011;54412;51.206;6.888;2023-05-10T14:31:01;15.33;;;12.40;;
5245;SDS011;54412;51.206;6.888;2023-05-10T14:33:27;18.13;;;12.87;;
5245;SDS011;54412;51.206;6.888;2023-05-10T14:35:53;17.53;;;12.37;;
5245;SDS011;54412;51.206;6.888;2023-05-10T14:38:21;13.77;;;10.77;;
5245;SDS011;54412;51.206;6.888;2023-05-10T14:40:47;17.63;;;11.87;;
5245;SDS011;54412;51.206;6.888;2023-05-10T14:43:12;19.43;;;13.27;;
5245;SDS011;54412;51.206;6.888;2023-05-10T14:45:38;15.83;;;12.20;;
5245;SDS011;54412;51.206;6.888;2023-05-10T14:48:04;16.70;;;11.37;;
5245;SDS011;54412;51.206;6.888;2023-05-10T14:50:30;16.33;;;11.93;;
5245;SDS011;54412;51.206;6.888;2023-05-10T14:52:57;14.50;;;11.77;;
5245;SDS011;54412;51.206;6.888;2023-05-10T14:55:23;19.70;;;12.77;;
5245;SDS011;54412;51.206;6.888;2023-05-10T14:57:49;15.70;;;11.50;;
5245;SDS011;54412;51.206;6.888;2023-05-10T15:00:15;13.97;;;10.97;;
5245;SDS011;54412;51.206;6.888;2023-05-10T15:02:42;18.97;;;12.37;;
5245;SDS011;54412;51.206;6.888;2023-05-10T15:05:07;14.80;;;11.23;;
5245;SDS011;54412;51.206;6.888;2023-05-10T15:07:33;15.77;;;11.63;;
5245;SDS011;54412;51.206;6.888;2023-05-10T15:09:59;13.17;;;10.30;;
5245;SDS011;54412;51.206;6.888;2023-05-10T15:12:25;17.60;;;11.03;;
5245;SDS011;54412;51.206;6.888;2023-05-10T15:14:51;16.60;;;12.03;;
5245;SDS011;54412;51.206;6.888;2023-05-10T15:17:16;12.90;;;10.00;;
5245;SDS011;54412;51.206;6.888;2023-05-10T15:19:42;12.90;;;10.60;;
5245;SDS011;54412;51.206;6.888;2023-05-10T15:22:08;15.40;;;10.97;;
5245;SDS011;54412;51.206;6.888;2023-05-10T15:24:33;15.83;;;10.77;;
5245;SDS011;54412;51.206;6.888;2023-05-10T15:26:59;13.20;;;9.90;;
5245;SDS011;54412;51.206;6.888;2023-05-10T15:29:25;14.87;;;10.73;;